sensor_id;sensor_type;location;lat;lon;timestamp;P1;durP1;ratioP1;P2;durP2;ratioP2
53207;SDS011;39093;52.788;6.940;2023-09-08T00:00:24;6.72;;;5.60;;
53207;SDS011;39093;52.788;6.940;2023-09-08T00:02:51;8.93;;;5.53;;
53207;SDS011;39093;52.788;6.940;2023-09-08T00:05:18;11.73;;;5.93;;
53207;SDS011;39093;52.788;6.940;2023-09-08T00:07:45;9.95;;;5.97;;
53207;SDS011;39093;52.788;6.940;2023-09-08T00:10:14;9.32;;;6.53;;
53207;SDS011;39093;52.788;6.940;2023-09-08T00:12:41;7.10;;;6.30;;
53207;SDS011;39093;52.788;6.940;2023-09-08T00:15:08;7.53;;;6.15;;
53207;SDS011;39093;52.788;6.940;2023-09-08T00:17:36;10.18;;;6.30;;
53207;SDS011;39093;52.788;6.940;2023-09-08T00:20:03;7.50;;;6.72;;
53207;SDS011;39093;52.788;6.940;2023-09-08T00:22:38;7.55;;;6.18;;
53207;SDS011;39093;52.788;6.940;2023-09-08T00:25:05;8.90;;;6.15;;
53207;SDS011;39093;52.788;6.940;2023-09-08T00:27:32;8.85;;;6.50;;
53207;SDS011;39093;52.788;6.940;2023-09-08T00:29:59;10.15;;;6.80;;
53207;SDS011;39093;52.788;6.940;2023-09-08T00:32:28;8.07;;;6.55;;
53207;SDS011;39093;52.788;6.940;2023-09-08T00:34:55;8.43;;;6.80;;
53207;SDS011;39093;52.788;6.940;2023-09-08T00:37:22;12.70;;;7.00;;
53207;SDS011;39093;52.788;6.940;2023-09-08T00:39:50;8.25;;;6.82;;
53207;SDS011;39093;52.788;6.940;2023-09-08T00:42:17;7.25;;;6.53;;
53207;SDS011;39093;52.788;6.940;2023-09-08T00:44:44;7.85;;;6.45;;
53207;SDS011;39093;52.788;6.940;2023-09-08T00:47:11;8.90;;;6.25;;
53207;SDS011;39093;52.788;6.940;2023-09-08T00:49:38;10.00;;;6.57;;
53207;SDS011;39093;52.788;6.940;2023-09-08T00:52:05;8.45;;;6.47;;
53207;SDS011;39093;52.788;6.940;2023-09-08T00:54:32;6.43;;;5.72;;
53207;SDS011;39093;52.788;6.940;2023-09-08T00:56:59;8.75;;;6.10;;
53207;SDS011;39093;52.788;6.940;2023-09-08T00:59:30;11.35;;;6.78;;
53207;SDS011;39093;52.788;6.940;2023-09-08T01:01:58;12.27;;;6.82;;
53207;SDS011;39093;52.788;6.940;2023-09-08T01:04:25;8.32;;;6.85;;
53207;SDS011;39093;52.788;6.940;2023-09-08T01:06:52;9.10;;;6.57;;
53207;SDS011;39093;52.788;6.940;2023-09-08T01:09:20;15.48;;;7.28;;
53207;SDS011;39093;52.788;6.940;2023-09-08T01:11:48;12.50;;;6.25;;
53207;SDS011;39093;52.788;6.940;2023-09-08T01:14:17;9.52;;;6.68;;
53207;SDS011;39093;52.788;6.940;2023-09-08T01:16:45;9.13;;;6.38;;
53207;SDS011;39093;52.788;6.940;2023-09-08T01:19:13;10.13;;;7.25;;
53207;SDS011;39093;52.788;6.940;2023-09-08T01:27:32;9.88;;;6.90;;
53207;SDS011;39093;52.788;6.940;2023-09-08T01:30:01;7.57;;;6.60;;
53207;SDS011;39093;52.788;6.940;2023-09-08T01:32:30;11.30;;;6.63;;
53207;SDS011;39093;52.788;6.940;2023-09-08T01:34:59;9.05;;;7.00;;
53207;SDS011;39093;52.788;6.940;2023-09-08T01:37:26;7.40;;;6.05;;
53207;SDS011;39093;52.788;6.940;2023-09-08T01:39:53;14.40;;;6.93;;
53207;SDS011;39093;52.788;6.940;2023-09-08T01:42:20;8.13;;;6.72;;
53207;SDS011;39093;52.788;6.940;2023-09-08T01:44:47;10.82;;;7.22;;
53207;SDS011;39093;52.788;6.940;2023-09-08T01:47:15;8.95;;;7.10;;
53207;SDS011;39093;52.788;6.940;2023-09-08T01:49:42;7.57;;;6.63;;
53207;SDS011;39093;52.788;6.940;2023-09-08T01:52:09;16.48;;;7.40;;
53207;SDS011;39093;52.788;6.940;2023-09-08T01:54:36;8.93;;;7.13;;
53207;SDS011;39093;52.788;6.940;2023-09-08T01:57:03;9.73;;;7.40;;
53207;SDS011;39093;52.788;6.940;2023-09-08T01:59:30;8.73;;;6.57;;
53207;SDS011;39093;52.788;6.940;2023-09-08T02:01:57;8.02;;;6.88;;
53207;SDS011;39093;52.788;6.940;2023-09-08T02:04:24;11.55;;;7.13;;
53207;SDS011;39093;52.788;6.940;2023-09-08T02:06:51;9.18;;;6.82;;
53207;SDS011;39093;52.788;6.940;2023-09-08T02:09:18;10.65;;;6.85;;
53207;SDS011;39093;52.788;6.940;2023-09-08T02:11:45;7.63;;;6.82;;
53207;SDS011;39093;52.788;6.940;2023-09-08T02:14:12;10.60;;;7.88;;
53207;SDS011;39093;52.788;6.940;2023-09-08T02:16:39;9.55;;;7.35;;
53207;SDS011;39093;52.788;6.940;2023-09-08T02:19:06;8.65;;;7.30;;
53207;SDS011;39093;52.788;6.940;2023-09-08T02:21:33;9.50;;;7.47;;
53207;SDS011;39093;52.788;6.940;2023-09-08T02:24:00;9.13;;;7.10;;
53207;SDS011;39093;52.788;6.940;2023-09-08T02:26:27;10.93;;;7.10;;
53207;SDS011;39093;52.788;6.940;2023-09-08T02:28:55;8.30;;;7.32;;
53207;SDS011;39093;52.788;6.940;2023-09-08T02:31:22;10.75;;;8.60;;
53207;SDS011;39093;52.788;6.940;2023-09-08T02:33:49;10.30;;;7.07;;
53207;SDS011;39093;52.788;6.940;2023-09-08T02:36:16;10.90;;;7.18;;
53207;SDS011;39093;52.788;6.940;2023-09-08T02:38:43;10.95;;;8.65;;
53207;SDS011;39093;52.788;6.940;2023-09-08T02:41:10;14.63;;;7.68;;
53207;SDS011;39093;52.788;6.940;2023-09-08T02:43:37;11.38;;;7.75;;
53207;SDS011;39093;52.788;6.940;2023-09-08T02:46:04;11.07;;;7.90;;
53207;SDS011;39093;52.788;6.940;2023-09-08T02:48:31;21.80;;;7.72;;
53207;SDS011;39093;52.788;6.940;2023-09-08T02:50:58;9.63;;;7.88;;
53207;SDS011;39093;52.788;6.940;2023-09-08T02:53:25;10.95;;;7.82;;
53207;SDS011;39093;52.788;6.940;2023-09-08T02:55:55;9.30;;;7.40;;
53207;SDS011;39093;52.788;6.940;2023-09-08T02:58:22;9.70;;;7.78;;
53207;SDS011;39093;52.788;6.940;2023-09-08T03:00:49;9.18;;;7.70;;
53207;SDS011;39093;52.788;6.940;2023-09-08T03:03:18;9.43;;;7.68;;
53207;SDS011;39093;52.788;6.940;2023-09-08T03:05:46;10.43;;;7.50;;
53207;SDS011;39093;52.788;6.940;2023-09-08T03:08:13;8.70;;;7.13;;
53207;SDS011;39093;52.788;6.940;2023-09-08T03:10:40;9.23;;;8.30;;
53207;SDS011;39093;52.788;6.940;2023-09-08T03:13:07;9.07;;;8.10;;
53207;SDS011;39093;52.788;6.940;2023-09-08T03:15:34;8.93;;;8.13;;
53207;SDS011;39093;52.788;6.940;2023-09-08T03:18:01;8.75;;;7.68;;
53207;SDS011;39093;52.788;6.940;2023-09-08T03:20:28;10.52;;;7.55;;
53207;SDS011;39093;52.788;6.940;2023-09-08T03:22:55;9.15;;;8.15;;
53207;SDS011;39093;52.788;6.940;2023-09-08T03:25:22;12.57;;;7.78;;
53207;SDS011;39093;52.788;6.940;2023-09-08T03:27:49;8.35;;;7.60;;
53207;SDS011;39093;52.788;6.940;2023-09-08T03:30:15;11.68;;;8.05;;
53207;SDS011;39093;52.788;6.940;2023-09-08T03:32:42;8.98;;;8.23;;
53207;SDS011;39093;52.788;6.940;2023-09-08T03:35:09;10.07;;;7.95;;
53207;SDS011;39093;52.788;6.940;2023-09-08T03:37:36;10.15;;;8.02;;
53207;SDS011;39093;52.788;6.940;2023-09-08T03:40:03;8.82;;;7.93;;
53207;SDS011;39093;52.788;6.940;2023-09-08T03:42:32;12.18;;;7.85;;
53207;SDS011;39093;52.788;6.940;2023-09-08T03:44:59;10.55;;;8.32;;
53207;SDS011;39093;52.788;6.940;2023-09-08T03:47:25;8.77;;;7.97;;
53207;SDS011;39093;52.788;6.940;2023-09-08T03:49:52;12.20;;;8.93;;
53207;SDS011;39093;52.788;6.940;2023-09-08T03:52:19;12.55;;;8.20;;
53207;SDS011;39093;52.788;6.940;2023-09-08T03:54:46;8.88;;;7.97;;
53207;SDS011;39093;52.788;6.940;2023-09-08T03:57:13;10.82;;;7.63;;
53207;SDS011;39093;52.788;6.940;2023-09-08T03:59:40;8.77;;;7.85;;
53207;SDS011;39093;52.788;6.940;2023-09-08T04:02:07;9.95;;;8.02;;
53207;SDS011;39093;52.788;6.940;2023-09-08T04:04:34;11.65;;;8.68;;
53207;SDS011;39093;52.788;6.940;2023-09-08T04:07:04;10.85;;;8.50;;
53207;SDS011;39093;52.788;6.940;2023-09-08T04:09:30;8.68;;;7.82;;
53207;SDS011;39093;52.788;6.940;2023-09-08T04:11:58;10.40;;;8.35;;
53207;SDS011;39093;52.788;6.940;2023-09-08T04:14:25;10.05;;;8.55;;
53207;SDS011;39093;52.788;6.940;2023-09-08T04:16:54;9.55;;;8.27;;
53207;SDS011;39093;52.788;6.940;2023-09-08T04:19:21;11.27;;;8.65;;
53207;SDS011;39093;52.788;6.940;2023-09-08T04:21:48;12.77;;;8.60;;
53207;SDS011;39093;52.788;6.940;2023-09-08T04:24:15;10.70;;;8.25;;
53207;SDS011;39093;52.788;6.940;2023-09-08T04:26:42;8.52;;;7.65;;
53207;SDS011;39093;52.788;6.940;2023-09-08T04:29:09;9.15;;;8.20;;
53207;SDS011;39093;52.788;6.940;2023-09-08T04:31:35;9.60;;;8.57;;
53207;SDS011;39093;52.788;6.940;2023-09-08T04:34:02;11.38;;;7.72;;
53207;SDS011;39093;52.788;6.940;2023-09-08T04:36:29;11.55;;;8.63;;
53207;SDS011;39093;52.788;6.940;2023-09-08T04:38:56;10.88;;;8.23;;
53207;SDS011;39093;52.788;6.940;2023-09-08T04:41:23;10.10;;;7.75;;
53207;SDS011;39093;52.788;6.940;2023-09-08T04:43:50;10.63;;;9.13;;
53207;SDS011;39093;52.788;6.940;2023-09-08T04:46:17;11.85;;;8.10;;
53207;SDS011;39093;52.788;6.940;2023-09-08T04:48:44;12.80;;;8.68;;
53207;SDS011;39093;52.788;6.940;2023-09-08T04:51:11;9.90;;;8.98;;
53207;SDS011;39093;52.788;6.940;2023-09-08T04:53:38;12.85;;;8.70;;
53207;SDS011;39093;52.788;6.940;2023-09-08T04:56:05;8.88;;;7.97;;
53207;SDS011;39093;52.788;6.940;2023-09-08T04:58:32;13.82;;;8.90;;
53207;SDS011;39093;52.788;6.940;2023-09-08T05:00:59;11.40;;;8.38;;
53207;SDS011;39093;52.788;6.940;2023-09-08T05:03:26;10.45;;;8.93;;
53207;SDS011;39093;52.788;6.940;2023-09-08T05:05:53;9.48;;;8.50;;
53207;SDS011;39093;52.788;6.940;2023-09-08T05:08:20;14.15;;;8.45;;
53207;SDS011;39093;52.788;6.940;2023-09-08T05:10:47;9.02;;;8.13;;
53207;SDS011;39093;52.788;6.940;2023-09-08T05:13:16;8.88;;;7.95;;
53207;SDS011;39093;52.788;6.940;2023-09-08T05:15:56;10.73;;;8.98;;
53207;SDS011;39093;52.788;6.940;2023-09-08T05:18:38;9.73;;;8.27;;
53207;SDS011;39093;52.788;6.940;2023-09-08T05:21:06;12.57;;;8.27;;
53207;SDS011;39093;52.788;6.940;2023-09-08T05:23:33;12.88;;;9.05;;
53207;SDS011;39093;52.788;6.940;2023-09-08T05:26:00;10.70;;;8.82;;
53207;SDS011;39093;52.788;6.940;2023-09-08T05:28:27;13.02;;;8.38;;
53207;SDS011;39093;52.788;6.940;2023-09-08T05:30:54;13.02;;;8.73;;
53207;SDS011;39093;52.788;6.940;2023-09-08T05:33:21;10.05;;;9.02;;
53207;SDS011;39093;52.788;6.940;2023-09-08T05:35:48;9.88;;;8.88;;
53207;SDS011;39093;52.788;6.940;2023-09-08T05:38:15;16.17;;;8.48;;
53207;SDS011;39093;52.788;6.940;2023-09-08T05:40:42;15.80;;;9.32;;
53207;SDS011;39093;52.788;6.940;2023-09-08T05:43:09;14.98;;;8.68;;
53207;SDS011;39093;52.788;6.940;2023-09-08T05:45:36;10.13;;;9.10;;
53207;SDS011;39093;52.788;6.940;2023-09-08T05:48:03;9.85;;;8.88;;
53207;SDS011;39093;52.788;6.940;2023-09-08T05:50:33;12.68;;;9.13;;
53207;SDS011;39093;52.788;6.940;2023-09-08T05:53:00;13.73;;;8.95;;
53207;SDS011;39093;52.788;6.940;2023-09-08T05:55:28;9.23;;;8.32;;
53207;SDS011;39093;52.788;6.940;2023-09-08T05:57:56;9.75;;;8.85;;
53207;SDS011;39093;52.788;6.940;2023-09-08T06:00:23;9.82;;;8.20;;
53207;SDS011;39093;52.788;6.940;2023-09-08T06:02:50;10.98;;;9.45;;
53207;SDS011;39093;52.788;6.940;2023-09-08T06:05:17;9.75;;;8.45;;
53207;SDS011;39093;52.788;6.940;2023-09-08T06:07:44;11.55;;;9.13;;
53207;SDS011;39093;52.788;6.940;2023-09-08T06:10:30;9.50;;;8.68;;
53207;SDS011;39093;52.788;6.940;2023-09-08T06:12:57;15.60;;;8.25;;
53207;SDS011;39093;52.788;6.940;2023-09-08T06:15:24;13.48;;;9.45;;
53207;SDS011;39093;52.788;6.940;2023-09-08T06:17:51;13.30;;;9.05;;
53207;SDS011;39093;52.788;6.940;2023-09-08T06:20:18;9.82;;;7.93;;
53207;SDS011;39093;52.788;6.940;2023-09-08T06:22:44;18.95;;;8.93;;
53207;SDS011;39093;52.788;6.940;2023-09-08T06:25:11;13.77;;;9.10;;
53207;SDS011;39093;52.788;6.940;2023-09-08T06:27:39;11.02;;;8.80;;
53207;SDS011;39093;52.788;6.940;2023-09-08T06:30:06;12.32;;;8.98;;
53207;SDS011;39093;52.788;6.940;2023-09-08T06:32:33;9.02;;;8.13;;
53207;SDS011;39093;52.788;6.940;2023-09-08T06:35:00;11.98;;;8.68;;
53207;SDS011;39093;52.788;6.940;2023-09-08T06:37:27;10.18;;;8.73;;
53207;SDS011;39093;52.788;6.940;2023-09-08T06:39:55;11.48;;;8.85;;
53207;SDS011;39093;52.788;6.940;2023-09-08T06:42:22;13.68;;;8.23;;
53207;SDS011;39093;52.788;6.940;2023-09-08T06:44:49;15.70;;;8.73;;
53207;SDS011;39093;52.788;6.940;2023-09-08T06:47:16;12.98;;;8.48;;
53207;SDS011;39093;52.788;6.940;2023-09-08T06:49:42;10.27;;;8.57;;
53207;SDS011;39093;52.788;6.940;2023-09-08T06:52:09;9.95;;;8.60;;
53207;SDS011;39093;52.788;6.940;2023-09-08T06:54:36;10.35;;;8.45;;
53207;SDS011;39093;52.788;6.940;2023-09-08T06:57:03;8.57;;;7.40;;
53207;SDS011;39093;52.788;6.940;2023-09-08T06:59:30;9.93;;;8.10;;
53207;SDS011;39093;52.788;6.940;2023-09-08T07:01:57;12.70;;;8.20;;
53207;SDS011;39093;52.788;6.940;2023-09-08T07:04:24;9.70;;;8.25;;
53207;SDS011;39093;52.788;6.940;2023-09-08T07:06:52;11.02;;;8.38;;
53207;SDS011;39093;52.788;6.940;2023-09-08T07:09:21;13.65;;;7.50;;
53207;SDS011;39093;52.788;6.940;2023-09-08T07:11:48;10.98;;;7.70;;
53207;SDS011;39093;52.788;6.940;2023-09-08T07:14:15;11.95;;;7.88;;
53207;SDS011;39093;52.788;6.940;2023-09-08T07:16:41;11.48;;;7.05;;
53207;SDS011;39093;52.788;6.940;2023-09-08T07:19:09;9.27;;;7.50;;
53207;SDS011;39093;52.788;6.940;2023-09-08T07:21:36;11.20;;;7.20;;
53207;SDS011;39093;52.788;6.940;2023-09-08T07:24:03;11.75;;;7.93;;
53207;SDS011;39093;52.788;6.940;2023-09-08T07:26:30;9.20;;;7.05;;
53207;SDS011;39093;52.788;6.940;2023-09-08T07:28:57;11.38;;;7.35;;
53207;SDS011;39093;52.788;6.940;2023-09-08T07:31:24;9.63;;;7.43;;
53207;SDS011;39093;52.788;6.940;2023-09-08T07:33:51;8.60;;;7.53;;
53207;SDS011;39093;52.788;6.940;2023-09-08T07:36:18;10.00;;;7.05;;
53207;SDS011;39093;52.788;6.940;2023-09-08T07:38:45;9.88;;;7.05;;
53207;SDS011;39093;52.788;6.940;2023-09-08T07:41:12;11.63;;;6.85;;
53207;SDS011;39093;52.788;6.940;2023-09-08T07:43:39;12.38;;;6.88;;
53207;SDS011;39093;52.788;6.940;2023-09-08T07:46:07;7.68;;;6.05;;
53207;SDS011;39093;52.788;6.940;2023-09-08T07:48:34;13.35;;;6.25;;
53207;SDS011;39093;52.788;6.940;2023-09-08T07:51:02;11.82;;;6.53;;
53207;SDS011;39093;52.788;6.940;2023-09-08T07:53:29;7.00;;;5.70;;
53207;SDS011;39093;52.788;6.940;2023-09-08T07:55:56;7.32;;;5.75;;
53207;SDS011;39093;52.788;6.940;2023-09-08T07:58:23;9.68;;;6.25;;
53207;SDS011;39093;52.788;6.940;2023-09-08T08:00:50;5.80;;;5.20;;
53207;SDS011;39093;52.788;6.940;2023-09-08T08:03:17;7.68;;;4.78;;
53207;SDS011;39093;52.788;6.940;2023-09-08T08:05:44;8.73;;;5.15;;
53207;SDS011;39093;52.788;6.940;2023-09-08T08:08:11;7.50;;;5.40;;
53207;SDS011;39093;52.788;6.940;2023-09-08T08:10:40;8.73;;;5.40;;
53207;SDS011;39093;52.788;6.940;2023-09-08T08:13:07;7.93;;;5.10;;
53207;SDS011;39093;52.788;6.940;2023-09-08T08:15:36;10.82;;;5.60;;
53207;SDS011;39093;52.788;6.940;2023-09-08T08:18:06;8.18;;;5.40;;
53207;SDS011;39093;52.788;6.940;2023-09-08T08:20:34;8.10;;;5.22;;
53207;SDS011;39093;52.788;6.940;2023-09-08T08:23:02;7.30;;;5.90;;
53207;SDS011;39093;52.788;6.940;2023-09-08T08:25:30;9.40;;;5.40;;
53207;SDS011;39093;52.788;6.940;2023-09-08T08:27:57;7.55;;;4.90;;
53207;SDS011;39093;52.788;6.940;2023-09-08T08:30:26;6.25;;;4.80;;
53207;SDS011;39093;52.788;6.940;2023-09-08T08:32:53;8.48;;;4.70;;
53207;SDS011;39093;52.788;6.940;2023-09-08T08:35:20;10.38;;;4.90;;
53207;SDS011;39093;52.788;6.940;2023-09-08T08:37:47;6.53;;;4.93;;
53207;SDS011;39093;52.788;6.940;2023-09-08T08:40:14;6.05;;;4.90;;
53207;SDS011;39093;52.788;6.940;2023-09-08T08:42:41;7.72;;;4.45;;
53207;SDS011;39093;52.788;6.940;2023-09-08T08:45:09;9.73;;;5.00;;
53207;SDS011;39093;52.788;6.940;2023-09-08T08:47:36;8.02;;;5.00;;
53207;SDS011;39093;52.788;6.940;2023-09-08T08:50:03;7.75;;;4.75;;
53207;SDS011;39093;52.788;6.940;2023-09-08T08:52:33;7.25;;;4.90;;
53207;SDS011;39093;52.788;6.940;2023-09-08T08:55:00;9.18;;;4.55;;
53207;SDS011;39093;52.788;6.940;2023-09-08T08:57:27;9.30;;;5.20;;
53207;SDS011;39093;52.788;6.940;2023-09-08T08:59:54;6.30;;;4.70;;
53207;SDS011;39093;52.788;6.940;2023-09-08T09:02:21;5.70;;;4.70;;
53207;SDS011;39093;52.788;6.940;2023-09-08T09:04:51;7.72;;;4.13;;
53207;SDS011;39093;52.788;6.940;2023-09-08T09:07:19;11.13;;;4.22;;
53207;SDS011;39093;52.788;6.940;2023-09-08T09:09:47;9.52;;;4.38;;
53207;SDS011;39093;52.788;6.940;2023-09-08T09:12:14;10.18;;;4.45;;
53207;SDS011;39093;52.788;6.940;2023-09-08T09:14:45;12.20;;;4.25;;
53207;SDS011;39093;52.788;6.940;2023-09-08T09:19:41;7.60;;;4.07;;
53207;SDS011;39093;52.788;6.940;2023-09-08T09:22:08;6.07;;;4.32;;
53207;SDS011;39093;52.788;6.940;2023-09-08T09:24:36;8.90;;;4.55;;
53207;SDS011;39093;52.788;6.940;2023-09-08T09:27:10;5.85;;;4.18;;
53207;SDS011;39093;52.788;6.940;2023-09-08T09:29:44;4.55;;;3.90;;
53207;SDS011;39093;52.788;6.940;2023-09-08T09:32:23;5.65;;;4.25;;
53207;SDS011;39093;52.788;6.940;2023-09-08T09:34:51;4.78;;;3.42;;
53207;SDS011;39093;52.788;6.940;2023-09-08T09:37:20;4.90;;;3.85;;
53207;SDS011;39093;52.788;6.940;2023-09-08T09:39:48;5.25;;;3.58;;
53207;SDS011;39093;52.788;6.940;2023-09-08T09:42:20;7.35;;;4.03;;
53207;SDS011;39093;52.788;6.940;2023-09-08T09:44:48;7.35;;;3.95;;
53207;SDS011;39093;52.788;6.940;2023-09-08T09:47:15;6.75;;;3.65;;
53207;SDS011;39093;52.788;6.940;2023-09-08T09:49:43;9.15;;;3.90;;
53207;SDS011;39093;52.788;6.940;2023-09-08T09:52:11;9.35;;;3.88;;
53207;SDS011;39093;52.788;6.940;2023-09-08T09:54:42;5.47;;;3.95;;
53207;SDS011;39093;52.788;6.940;2023-09-08T09:57:13;5.32;;;3.88;;
53207;SDS011;39093;52.788;6.940;2023-09-08T09:59:40;5.50;;;3.72;;
53207;SDS011;39093;52.788;6.940;2023-09-08T10:02:14;5.82;;;3.65;;
53207;SDS011;39093;52.788;6.940;2023-09-08T10:04:41;8.48;;;3.72;;
53207;SDS011;39093;52.788;6.940;2023-09-08T10:07:09;6.45;;;3.25;;
53207;SDS011;39093;52.788;6.940;2023-09-08T10:09:36;6.22;;;3.90;;
53207;SDS011;39093;52.788;6.940;2023-09-08T10:12:04;6.35;;;4.32;;
53207;SDS011;39093;52.788;6.940;2023-09-08T10:14:32;7.57;;;3.75;;
53207;SDS011;39093;52.788;6.940;2023-09-08T10:17:02;6.53;;;3.65;;
53207;SDS011;39093;52.788;6.940;2023-09-08T10:19:34;7.53;;;3.28;;
53207;SDS011;39093;52.788;6.940;2023-09-08T10:22:11;5.40;;;3.42;;
53207;SDS011;39093;52.788;6.940;2023-09-08T10:24:42;6.40;;;3.65;;
53207;SDS011;39093;52.788;6.940;2023-09-08T10:27:12;11.77;;;3.40;;
53207;SDS011;39093;52.788;6.940;2023-09-08T10:29:40;4.97;;;3.55;;
53207;SDS011;39093;52.788;6.940;2023-09-08T10:32:08;5.03;;;3.15;;
53207;SDS011;39093;52.788;6.940;2023-09-08T10:34:36;6.55;;;3.40;;
53207;SDS011;39093;52.788;6.940;2023-09-08T10:37:18;5.88;;;3.33;;
53207;SDS011;39093;52.788;6.940;2023-09-08T10:39:48;4.05;;;3.20;;
53207;SDS011;39093;52.788;6.940;2023-09-08T10:47:24;7.07;;;3.67;;
53207;SDS011;39093;52.788;6.940;2023-09-08T10:49:52;6.40;;;3.30;;
53207;SDS011;39093;52.788;6.940;2023-09-08T10:52:25;6.78;;;3.30;;
53207;SDS011;39093;52.788;6.940;2023-09-08T10:54:54;4.70;;;3.30;;
53207;SDS011;39093;52.788;6.940;2023-09-08T10:57:22;9.77;;;3.83;;
53207;SDS011;39093;52.788;6.940;2023-09-08T11:05:06;7.55;;;3.33;;
53207;SDS011;39093;52.788;6.940;2023-09-08T11:07:40;6.15;;;3.20;;
53207;SDS011;39093;52.788;6.940;2023-09-08T11:10:08;5.30;;;3.83;;
53207;SDS011;39093;52.788;6.940;2023-09-08T11:12:36;6.22;;;3.30;;
53207;SDS011;39093;52.788;6.940;2023-09-08T11:15:04;4.97;;;3.60;;
53207;SDS011;39093;52.788;6.940;2023-09-08T11:17:36;5.85;;;3.58;;
53207;SDS011;39093;52.788;6.940;2023-09-08T11:20:09;3.78;;;3.10;;
53207;SDS011;39093;52.788;6.940;2023-09-08T11:22:39;4.28;;;3.13;;
53207;SDS011;39093;52.788;6.940;2023-09-08T11:25:07;8.40;;;2.95;;
53207;SDS011;39093;52.788;6.940;2023-09-08T11:27:37;7.32;;;3.42;;
53207;SDS011;39093;52.788;6.940;2023-09-08T11:30:06;4.32;;;3.42;;
53207;SDS011;39093;52.788;6.940;2023-09-08T11:32:35;6.88;;;3.28;;
53207;SDS011;39093;52.788;6.940;2023-09-08T11:35:05;5.75;;;3.63;;
53207;SDS011;39093;52.788;6.940;2023-09-08T11:37:39;5.63;;;3.92;;
53207;SDS011;39093;52.788;6.940;2023-09-08T11:42:39;9.25;;;3.55;;
53207;SDS011;39093;52.788;6.940;2023-09-08T11:47:44;7.18;;;3.15;;
53207;SDS011;39093;52.788;6.940;2023-09-08T11:50:12;4.82;;;3.42;;
53207;SDS011;39093;52.788;6.940;2023-09-08T11:52:45;4.50;;;3.65;;
53207;SDS011;39093;52.788;6.940;2023-09-08T11:55:13;6.43;;;3.47;;
53207;SDS011;39093;52.788;6.940;2023-09-08T11:57:41;7.90;;;3.33;;
53207;SDS011;39093;52.788;6.940;2023-09-08T12:00:10;6.53;;;3.40;;
53207;SDS011;39093;52.788;6.940;2023-09-08T12:02:43;7.43;;;3.28;;
53207;SDS011;39093;52.788;6.940;2023-09-08T12:05:30;5.72;;;3.10;;
53207;SDS011;39093;52.788;6.940;2023-09-08T12:07:57;5.63;;;3.17;;
53207;SDS011;39093;52.788;6.940;2023-09-08T12:10:25;4.60;;;3.30;;
53207;SDS011;39093;52.788;6.940;2023-09-08T12:12:52;4.90;;;2.80;;
53207;SDS011;39093;52.788;6.940;2023-09-08T12:15:35;5.15;;;3.30;;
53207;SDS011;39093;52.788;6.940;2023-09-08T12:18:07;7.13;;;3.70;;
53207;SDS011;39093;52.788;6.940;2023-09-08T12:20:36;3.83;;;2.90;;
53207;SDS011;39093;52.788;6.940;2023-09-08T12:23:04;6.70;;;3.20;;
53207;SDS011;39093;52.788;6.940;2023-09-08T12:25:44;7.47;;;3.13;;
53207;SDS011;39093;52.788;6.940;2023-09-08T12:28:18;8.55;;;3.03;;
53207;SDS011;39093;52.788;6.940;2023-09-08T12:30:46;4.07;;;3.22;;
53207;SDS011;39093;52.788;6.940;2023-09-08T12:33:16;7.25;;;2.85;;
53207;SDS011;39093;52.788;6.940;2023-09-08T12:35:48;4.80;;;2.83;;
53207;SDS011;39093;52.788;6.940;2023-09-08T12:38:17;6.30;;;3.17;;
53207;SDS011;39093;52.788;6.940;2023-09-08T12:40:44;9.07;;;3.25;;
53207;SDS011;39093;52.788;6.940;2023-09-08T12:43:11;5.47;;;3.58;;
53207;SDS011;39093;52.788;6.940;2023-09-08T12:45:52;7.65;;;2.88;;
53207;SDS011;39093;52.788;6.940;2023-09-08T12:48:19;9.43;;;2.88;;
53207;SDS011;39093;52.788;6.940;2023-09-08T12:50:47;7.22;;;2.70;;
53207;SDS011;39093;52.788;6.940;2023-09-08T12:53:15;4.57;;;2.83;;
53207;SDS011;39093;52.788;6.940;2023-09-08T12:58:14;4.75;;;2.80;;
53207;SDS011;39093;52.788;6.940;2023-09-08T13:00:42;5.35;;;2.40;;
53207;SDS011;39093;52.788;6.940;2023-09-08T13:03:09;5.22;;;2.67;;
53207;SDS011;39093;52.788;6.940;2023-09-08T13:05:37;2.67;;;2.45;;
53207;SDS011;39093;52.788;6.940;2023-09-08T13:08:05;5.15;;;2.58;;
53207;SDS011;39093;52.788;6.940;2023-09-08T13:10:32;6.88;;;3.00;;
53207;SDS011;39093;52.788;6.940;2023-09-08T13:12:59;3.75;;;3.20;;
53207;SDS011;39093;52.788;6.940;2023-09-08T13:15:26;6.53;;;2.88;;
53207;SDS011;39093;52.788;6.940;2023-09-08T13:17:54;4.80;;;2.67;;
53207;SDS011;39093;52.788;6.940;2023-09-08T13:20:21;2.72;;;2.17;;
53207;SDS011;39093;52.788;6.940;2023-09-08T13:22:48;6.57;;;2.33;;
53207;SDS011;39093;52.788;6.940;2023-09-08T13:25:15;7.53;;;2.33;;
53207;SDS011;39093;52.788;6.940;2023-09-08T13:27:42;4.40;;;2.90;;
53207;SDS011;39093;52.788;6.940;2023-09-08T13:30:10;7.53;;;2.67;;
53207;SDS011;39093;52.788;6.940;2023-09-08T13:32:41;5.55;;;2.53;;
53207;SDS011;39093;52.788;6.940;2023-09-08T13:35:09;4.78;;;2.40;;
53207;SDS011;39093;52.788;6.940;2023-09-08T13:37:36;3.22;;;2.53;;
53207;SDS011;39093;52.788;6.940;2023-09-08T13:40:06;4.30;;;2.65;;
53207;SDS011;39093;52.788;6.940;2023-09-08T13:42:35;4.55;;;2.58;;
53207;SDS011;39093;52.788;6.940;2023-09-08T13:45:02;6.65;;;2.70;;
53207;SDS011;39093;52.788;6.940;2023-09-08T13:47:30;5.68;;;2.80;;
53207;SDS011;39093;52.788;6.940;2023-09-08T13:49:59;5.18;;;2.60;;
53207;SDS011;39093;52.788;6.940;2023-09-08T13:54:59;5.32;;;2.90;;
53207;SDS011;39093;52.788;6.940;2023-09-08T13:57:46;9.05;;;2.60;;
53207;SDS011;39093;52.788;6.940;2023-09-08T14:00:21;7.70;;;2.88;;
53207;SDS011;39093;52.788;6.940;2023-09-08T14:02:50;11.00;;;3.03;;
53207;SDS011;39093;52.788;6.940;2023-09-08T14:05:24;6.25;;;2.80;;
53207;SDS011;39093;52.788;6.940;2023-09-08T14:07:56;5.32;;;2.85;;
53207;SDS011;39093;52.788;6.940;2023-09-08T14:10:33;7.95;;;2.95;;
53207;SDS011;39093;52.788;6.940;2023-09-08T14:13:07;8.70;;;2.75;;
53207;SDS011;39093;52.788;6.940;2023-09-08T14:15:34;12.55;;;3.55;;
53207;SDS011;39093;52.788;6.940;2023-09-08T14:18:01;4.93;;;2.75;;
53207;SDS011;39093;52.788;6.940;2023-09-08T14:20:28;3.25;;;2.58;;
53207;SDS011;39093;52.788;6.940;2023-09-08T14:22:55;6.78;;;2.60;;
53207;SDS011;39093;52.788;6.940;2023-09-08T14:25:22;5.18;;;2.72;;
53207;SDS011;39093;52.788;6.940;2023-09-08T14:27:49;6.95;;;2.60;;
53207;SDS011;39093;52.788;6.940;2023-09-08T14:30:27;5.40;;;2.65;;
53207;SDS011;39093;52.788;6.940;2023-09-08T14:32:54;3.92;;;2.85;;
53207;SDS011;39093;52.788;6.940;2023-09-08T14:35:21;3.45;;;2.50;;
53207;SDS011;39093;52.788;6.940;2023-09-08T14:37:48;4.65;;;2.72;;
53207;SDS011;39093;52.788;6.940;2023-09-08T14:40:15;3.28;;;2.78;;
53207;SDS011;39093;52.788;6.940;2023-09-08T14:42:42;5.45;;;2.65;;
53207;SDS011;39093;52.788;6.940;2023-09-08T14:45:09;5.20;;;2.42;;
53207;SDS011;39093;52.788;6.940;2023-09-08T14:47:37;3.85;;;2.53;;
53207;SDS011;39093;52.788;6.940;2023-09-08T14:50:04;6.15;;;2.92;;
53207;SDS011;39093;52.788;6.940;2023-09-08T14:52:31;6.45;;;2.50;;
53207;SDS011;39093;52.788;6.940;2023-09-08T14:54:59;5.85;;;2.63;;
53207;SDS011;39093;52.788;6.940;2023-09-08T14:57:28;3.35;;;2.90;;
53207;SDS011;39093;52.788;6.940;2023-09-08T14:59:55;3.13;;;2.75;;
53207;SDS011;39093;52.788;6.940;2023-09-08T15:02:24;6.75;;;3.00;;
53207;SDS011;39093;52.788;6.940;2023-09-08T15:04:51;4.70;;;3.20;;
53207;SDS011;39093;52.788;6.940;2023-09-08T15:07:18;4.10;;;2.67;;
53207;SDS011;39093;52.788;6.940;2023-09-08T15:09:45;6.70;;;3.10;;
53207;SDS011;39093;52.788;6.940;2023-09-08T15:12:11;3.50;;;3.00;;
53207;SDS011;39093;52.788;6.940;2023-09-08T15:14:38;9.45;;;3.33;;
53207;SDS011;39093;52.788;6.940;2023-09-08T15:17:05;12.90;;;3.08;;